createdAt,value
2019-03-12T00:00:13.441Z,17.77
2019-03-12T00:02:42.696Z,20.37
2019-03-12T00:05:12.028Z,12.77
2019-03-12T00:07:41.340Z,14.83
2019-03-12T00:10:10.615Z,17.37
2019-03-12T00:12:41.266Z,17.70
2019-03-12T00:15:10.565Z,15.77
2019-03-12T00:17:39.883Z,14.13
2019-03-12T00:20:09.317Z,14.07
2019-03-12T00:22:38.656Z,25.23
2019-03-12T00:25:07.965Z,20.57
2019-03-12T00:27:37.305Z,13.23
2019-03-12T00:30:07.168Z,14.83
2019-03-12T00:32:36.457Z,16.80
2019-03-12T00:35:06.271Z,13.73
2019-03-12T00:37:35.595Z,19.20
2019-03-12T00:40:05.131Z,17.07
2019-03-12T00:42:34.368Z,18.27
2019-03-12T00:45:03.685Z,18.43
2019-03-12T00:47:33.057Z,18.60
2019-03-12T00:50:02.687Z,14.60
2019-03-12T00:52:31.935Z,14.60
2019-03-12T00:55:01.188Z,18.33
2019-03-12T00:57:30.499Z,14.47
2019-03-12T00:59:59.729Z,13.03
2019-03-12T01:02:28.975Z,13.30
2019-03-12T01:04:58.706Z,17.60
2019-03-12T01:07:27.943Z,12.37
2019-03-12T01:09:57.183Z,14.03
2019-03-12T01:12:26.453Z,15.20
2019-03-12T01:14:56.768Z,15.00
2019-03-12T01:17:26.091Z,15.53
2019-03-12T01:19:55.412Z,17.10
2019-03-12T01:22:24.668Z,21.80
2019-03-12T01:24:53.899Z,15.77
2019-03-12T01:27:23.166Z,16.90
2019-03-12T01:29:52.502Z,18.83
2019-03-12T01:32:21.814Z,14.50
2019-03-12T01:34:51.072Z,14.50
2019-03-12T01:37:20.373Z,16.67
2019-03-12T01:39:49.618Z,13.73
2019-03-12T01:42:18.902Z,16.33
2019-03-12T01:44:48.212Z,14.93
2019-03-12T01:47:17.514Z,14.57
2019-03-12T01:49:46.846Z,15.03
2019-03-12T01:52:16.160Z,16.40
2019-03-12T01:54:45.457Z,18.20
2019-03-12T01:57:14.728Z,18.57
2019-03-12T01:59:43.955Z,17.90
2019-03-12T02:02:13.196Z,15.80
2019-03-12T02:04:42.450Z,14.37
2019-03-12T02:07:11.754Z,15.93
2019-03-12T02:09:41.015Z,15.93
2019-03-12T02:12:10.323Z,16.43
2019-03-12T02:14:39.558Z,21.00
2019-03-12T02:17:08.839Z,20.30
2019-03-12T02:19:38.151Z,18.70
2019-03-12T02:22:07.465Z,17.60
2019-03-12T02:24:36.743Z,19.07
2019-03-12T02:27:06.318Z,23.60
2019-03-12T02:29:35.651Z,18.00
2019-03-12T02:32:06.704Z,23.03
2019-03-12T02:34:36.277Z,17.77
2019-03-12T02:37:06.210Z,17.97
2019-03-12T02:39:35.555Z,17.60
2019-03-12T02:42:04.853Z,20.20
2019-03-12T02:44:34.180Z,19.93
2019-03-12T02:47:03.419Z,20.23
2019-03-12T02:49:32.680Z,20.57
2019-03-12T02:52:02.865Z,20.67
2019-03-12T02:54:32.186Z,19.53
2019-03-12T02:57:02.160Z,19.07
2019-03-12T02:59:31.448Z,19.93
2019-03-12T03:02:00.644Z,21.80
2019-03-12T03:04:29.913Z,23.47
2019-03-12T03:07:22.225Z,23.43
2019-03-12T03:09:51.545Z,23.20
2019-03-12T03:12:20.909Z,31.87
2019-03-12T03:14:50.275Z,23.20
2019-03-12T03:17:19.599Z,22.23
2019-03-12T03:19:48.918Z,23.80
2019-03-12T03:22:18.159Z,23.57
2019-03-12T03:24:47.408Z,21.83
2019-03-12T03:27:16.779Z,20.97
2019-03-12T03:29:46.021Z,21.73
2019-03-12T03:32:15.327Z,18.97
2019-03-12T03:34:44.554Z,19.47
2019-03-12T03:37:13.921Z,21.33
2019-03-12T03:39:43.157Z,20.53
2019-03-12T03:42:12.478Z,20.00
2019-03-12T03:44:41.818Z,18.83
2019-03-12T03:47:11.068Z,18.47
2019-03-12T03:49:40.376Z,19.60
2019-03-12T03:52:09.728Z,21.37
2019-03-12T03:54:38.968Z,102.13
2019-03-12T03:57:08.224Z,220.97
2019-03-12T03:59:37.537Z,148.50
2019-03-12T04:02:06.814Z,104.67
2019-03-12T04:04:36.045Z,44.60
2019-03-12T04:07:05.351Z,25.00
2019-03-12T04:09:34.644Z,26.80
2019-03-12T04:12:04.557Z,22.70
2019-03-12T04:14:33.797Z,19.37
2019-03-12T04:17:03.254Z,16.33
2019-03-12T04:19:32.607Z,17.90
2019-03-12T04:22:01.833Z,16.43
2019-03-12T04:24:31.291Z,18.60
2019-03-12T04:27:00.790Z,18.20
2019-03-12T04:29:30.014Z,16.90
2019-03-12T04:31:59.246Z,15.53
2019-03-12T04:34:34.595Z,17.40
2019-03-12T04:37:03.899Z,17.73
2019-03-12T04:39:33.130Z,16.47
2019-03-12T04:42:02.401Z,18.50
2019-03-12T04:44:31.674Z,20.07
2019-03-12T04:47:00.925Z,18.93
2019-03-12T04:49:30.238Z,18.40
2019-03-12T04:51:59.483Z,20.53
2019-03-12T04:54:28.716Z,22.10
2019-03-12T04:56:58.060Z,20.47
2019-03-12T04:59:27.379Z,21.57
2019-03-12T05:01:56.709Z,23.00
2019-03-12T05:04:25.955Z,27.50
2019-03-12T05:06:55.234Z,25.17
2019-03-12T05:09:24.495Z,20.17
2019-03-12T05:11:53.810Z,23.87
2019-03-12T05:14:30.925Z,22.87
2019-03-12T05:17:03.176Z,23.80
2019-03-12T05:19:32.520Z,22.57
2019-03-12T05:22:02.291Z,19.83
2019-03-12T05:24:31.551Z,21.40
2019-03-12T05:27:00.796Z,17.57
2019-03-12T05:29:30.094Z,19.43
2019-03-12T05:31:59.334Z,20.13
2019-03-12T05:34:28.675Z,18.87
2019-03-12T05:36:57.918Z,25.13
2019-03-12T05:39:27.186Z,17.30
2019-03-12T05:41:56.425Z,13.50
2019-03-12T05:44:25.662Z,39.60
2019-03-12T05:46:55.028Z,28.83
2019-03-12T05:49:24.338Z,29.57
2019-03-12T05:51:53.667Z,25.77
2019-03-12T05:54:22.912Z,51.90
2019-03-12T05:56:52.171Z,32.73
2019-03-12T05:59:21.514Z,39.17
2019-03-12T06:01:50.824Z,35.47
2019-03-12T06:04:20.537Z,25.33
2019-03-12T06:06:49.795Z,27.73
2019-03-12T06:09:29.708Z,21.97
2019-03-12T06:11:50.449Z,17.10
2019-03-12T06:14:19.692Z,37.17
2019-03-12T06:16:48.938Z,44.13
2019-03-12T06:19:18.261Z,30.33
2019-03-12T06:21:47.679Z,49.03
2019-03-12T06:24:17.105Z,25.63
2019-03-12T06:26:46.430Z,41.03
2019-03-12T06:29:15.750Z,36.87
2019-03-12T06:31:52.310Z,31.70
2019-03-12T06:34:28.447Z,36.07
2019-03-12T06:37:02.459Z,16.27
2019-03-12T06:39:53.685Z,27.93
2019-03-12T06:42:40.736Z,34.90
2019-03-12T06:45:16.314Z,22.00
2019-03-12T06:47:57.910Z,27.97
2019-03-12T06:50:46.222Z,16.07
2019-03-12T06:53:28.442Z,29.87
2019-03-12T06:56:15.622Z,32.23
2019-03-12T06:59:12.887Z,14.00
2019-03-12T07:01:49.395Z,25.37
2019-03-12T07:04:24.817Z,14.27
2019-03-12T07:07:17.109Z,12.67
2019-03-12T07:10:02.018Z,10.73
2019-03-12T07:12:37.777Z,15.80
2019-03-12T07:15:12.090Z,35.40
2019-03-12T07:17:55.620Z,25.80
2019-03-12T07:20:52.934Z,16.47
2019-03-12T07:23:41.519Z,14.90
2019-03-12T07:26:35.662Z,12.53
2019-03-12T07:29:20.451Z,18.50
2019-03-12T07:32:11.762Z,27.63
2019-03-12T07:34:58.531Z,23.37
2019-03-12T07:37:48.797Z,20.67
2019-03-12T07:40:52.226Z,16.47
2019-03-12T07:43:43.308Z,19.43
2019-03-12T07:46:31.592Z,12.13
2019-03-12T07:49:26.054Z,47.10
2019-03-12T07:52:26.689Z,17.53
2019-03-12T07:55:09.638Z,9.57
2019-03-12T07:57:55.925Z,13.73
2019-03-12T08:00:43.017Z,12.23
2019-03-12T08:03:22.993Z,10.20
2019-03-12T08:06:07.441Z,20.03
2019-03-12T08:08:54.594Z,10.80
2019-03-12T08:11:28.768Z,15.27
2019-03-12T08:14:19.898Z,13.07
2019-03-12T08:16:59.663Z,10.03
2019-03-12T08:19:47.962Z,11.27
2019-03-12T08:22:27.740Z,7.60
2019-03-12T08:25:34.091Z,8.53
2019-03-12T08:28:08.614Z,7.80
2019-03-12T08:31:00.020Z,7.90
2019-03-12T08:33:35.660Z,7.43
2019-03-12T08:36:14.476Z,7.30
2019-03-12T08:39:01.965Z,7.60
2019-03-12T08:42:08.612Z,7.77
2019-03-12T08:44:45.738Z,7.77
2019-03-12T08:47:22.364Z,6.53
2019-03-12T08:50:19.810Z,9.77
2019-03-12T08:53:06.675Z,7.77
2019-03-12T08:55:54.950Z,16.43
2019-03-12T08:58:48.696Z,27.17
2019-03-12T09:01:23.739Z,41.80
2019-03-12T09:04:14.111Z,24.00
2019-03-12T09:06:52.182Z,19.33
2019-03-12T09:09:39.090Z,11.17
2019-03-12T09:12:18.753Z,14.50
2019-03-12T09:15:07.156Z,11.60
2019-03-12T09:17:55.354Z,18.87
2019-03-12T09:20:55.830Z,9.03
2019-03-12T09:23:53.184Z,12.93
2019-03-12T09:26:29.724Z,10.13
2019-03-12T09:29:16.551Z,14.50
2019-03-12T09:32:13.656Z,15.53
2019-03-12T09:35:05.056Z,8.00
2019-03-12T09:37:48.311Z,7.90
2019-03-12T09:40:39.615Z,11.60
2019-03-12T09:43:36.046Z,14.20
2019-03-12T09:46:24.338Z,8.30
2019-03-12T09:49:09.447Z,11.17
2019-03-12T09:52:09.802Z,12.87
2019-03-12T09:54:56.740Z,6.53
2019-03-12T09:57:51.291Z,9.50
2019-03-12T10:00:28.663Z,12.83
2019-03-12T10:03:15.640Z,29.60
2019-03-12T10:06:02.925Z,17.57
2019-03-12T10:09:06.546Z,7.80
2019-03-12T10:11:57.626Z,11.97
2019-03-12T10:14:48.683Z,8.37
2019-03-12T10:17:36.958Z,45.07
2019-03-12T10:20:32.504Z,14.47
2019-03-12T10:23:26.911Z,14.40
2019-03-12T10:26:24.332Z,8.83
2019-03-12T10:29:03.774Z,8.77
2019-03-12T10:31:51.124Z,6.83
2019-03-12T10:34:39.504Z,7.20
2019-03-12T10:37:17.275Z,7.13
2019-03-12T10:40:19.368Z,21.80
2019-03-12T10:43:28.149Z,7.47
2019-03-12T10:46:19.203Z,7.27
2019-03-12T10:48:48.524Z,9.77
2019-03-12T10:51:17.851Z,6.27
2019-03-12T10:53:47.510Z,5.97
2019-03-12T10:56:16.844Z,20.20
2019-03-12T10:58:46.198Z,11.43
2019-03-12T11:01:15.509Z,12.67
2019-03-12T11:03:44.771Z,12.47
2019-03-12T11:06:14.100Z,9.50
2019-03-12T11:08:43.342Z,8.20
2019-03-12T11:11:12.674Z,8.63
2019-03-12T11:13:42.289Z,9.00
2019-03-12T11:16:11.593Z,7.90
2019-03-12T11:18:40.905Z,4.77
2019-03-12T11:21:10.698Z,10.00
2019-03-12T11:23:39.943Z,18.57
2019-03-12T11:26:09.560Z,10.73
2019-03-12T11:28:39.207Z,16.73
2019-03-12T11:31:08.449Z,13.07
2019-03-12T11:33:37.786Z,14.47
2019-03-12T11:36:07.107Z,11.90
2019-03-12T11:38:36.435Z,15.17
2019-03-12T11:41:05.732Z,8.60
2019-03-12T11:43:35.093Z,10.47
2019-03-12T11:46:05.133Z,7.47
2019-03-12T11:48:34.493Z,18.63
2019-03-12T11:51:04.166Z,17.43
2019-03-12T11:53:33.593Z,6.30
2019-03-12T11:56:02.985Z,17.13
2019-03-12T11:58:32.336Z,6.60
2019-03-12T12:01:04.505Z,6.40
2019-03-12T12:03:33.749Z,7.70
2019-03-12T12:06:03.084Z,8.80
2019-03-12T12:08:32.445Z,7.33
2019-03-12T12:11:01.826Z,5.97
2019-03-12T12:13:31.155Z,5.63
2019-03-12T12:16:00.471Z,9.80
2019-03-12T12:18:29.788Z,6.97
2019-03-12T12:20:59.039Z,9.13
2019-03-12T12:23:28.355Z,6.93
2019-03-12T12:25:57.624Z,5.67
2019-03-12T12:28:26.877Z,8.73
2019-03-12T12:30:57.658Z,6.37
2019-03-12T12:33:26.942Z,6.87
2019-03-12T12:35:56.261Z,8.30
2019-03-12T12:38:25.584Z,6.60
2019-03-12T12:40:55.205Z,6.70
2019-03-12T12:43:24.411Z,12.77
2019-03-12T12:45:53.654Z,9.67
2019-03-12T12:48:22.900Z,6.53
2019-03-12T12:51:02.389Z,12.43
2019-03-12T12:53:23.202Z,11.47
2019-03-12T12:55:52.501Z,7.40
2019-03-12T12:58:21.750Z,5.47
2019-03-12T13:00:53.386Z,5.67
2019-03-12T13:03:22.702Z,6.30
2019-03-12T13:05:52.046Z,8.47
2019-03-12T13:08:23.023Z,9.93
2019-03-12T13:10:52.344Z,6.80
2019-03-12T13:13:21.624Z,34.10
2019-03-12T13:15:50.862Z,12.63
2019-03-12T13:18:20.249Z,31.90
2019-03-12T13:20:49.774Z,22.33
2019-03-12T13:23:19.152Z,19.13
2019-03-12T13:25:48.522Z,22.10
2019-03-12T13:28:17.824Z,13.80
2019-03-12T13:30:47.126Z,14.30
2019-03-12T13:33:16.306Z,10.73
2019-03-12T13:35:45.636Z,13.00
2019-03-12T13:38:14.896Z,6.80
2019-03-12T13:40:44.240Z,5.70
2019-03-12T13:43:13.567Z,7.23
2019-03-12T13:45:42.876Z,5.93
2019-03-12T13:48:12.210Z,6.60
2019-03-12T13:50:41.462Z,9.73
2019-03-12T13:53:11.311Z,6.93
2019-03-12T13:55:40.600Z,22.90
2019-03-12T13:58:09.900Z,12.13
2019-03-12T14:00:39.145Z,21.87
2019-03-12T14:03:08.391Z,25.83
2019-03-12T14:05:37.720Z,20.27
2019-03-12T14:08:07.146Z,28.50
2019-03-12T14:10:37.403Z,17.37
2019-03-12T14:13:06.658Z,21.03
2019-03-12T14:15:36.095Z,10.93
2019-03-12T14:18:24.509Z,11.47
2019-03-12T14:21:14.287Z,14.00
2019-03-12T14:23:54.042Z,15.57
2019-03-12T14:26:24.468Z,10.40
2019-03-12T14:28:53.790Z,24.13
2019-03-12T14:31:23.066Z,10.23
2019-03-12T14:33:52.662Z,11.50
2019-03-12T14:36:23.476Z,10.10
2019-03-12T14:38:52.796Z,9.87
2019-03-12T14:41:22.056Z,17.70
2019-03-12T14:43:51.397Z,15.20
2019-03-12T14:46:20.745Z,14.07
2019-03-12T14:48:54.807Z,33.93
2019-03-12T14:51:48.038Z,19.73
2019-03-12T14:54:17.582Z,21.50
2019-03-12T14:56:46.963Z,25.43
2019-03-12T14:59:16.315Z,12.73
2019-03-12T15:01:45.640Z,17.20
2019-03-12T15:04:15.325Z,12.47
2019-03-12T15:06:44.634Z,18.97
2019-03-12T15:09:15.516Z,17.07
2019-03-12T15:11:44.938Z,20.60
2019-03-12T15:14:14.111Z,20.07
2019-03-12T15:16:43.484Z,17.33
2019-03-12T15:19:12.838Z,28.63
2019-03-12T15:21:42.230Z,20.40
2019-03-12T15:24:11.618Z,15.93
2019-03-12T15:26:40.953Z,21.83
2019-03-12T15:29:11.291Z,18.17
2019-03-12T15:31:40.661Z,23.10
2019-03-12T15:34:09.981Z,19.70
2019-03-12T15:36:39.578Z,28.70
2019-03-12T15:39:09.902Z,16.73
2019-03-12T15:41:39.240Z,20.27
2019-03-12T15:44:08.572Z,26.03
2019-03-12T15:46:37.910Z,22.27
2019-03-12T15:49:07.244Z,31.90
2019-03-12T15:51:37.288Z,36.93
2019-03-12T15:54:06.582Z,32.77
2019-03-12T15:56:35.909Z,34.97
2019-03-12T15:59:06.017Z,37.20
2019-03-12T16:01:35.280Z,26.43
2019-03-12T16:04:04.626Z,57.00
2019-03-12T16:06:34.175Z,39.37
2019-03-12T16:09:04.208Z,27.20
2019-03-12T16:11:33.559Z,29.80
2019-03-12T16:14:02.894Z,26.93
2019-03-12T16:16:34.191Z,52.73
2019-03-12T16:19:03.925Z,34.40
2019-03-12T16:21:33.244Z,34.60
2019-03-12T16:24:02.626Z,24.90
2019-03-12T16:26:32.255Z,26.83
2019-03-12T16:29:01.586Z,33.47
2019-03-12T16:31:30.946Z,36.13
2019-03-12T16:34:00.177Z,27.43
2019-03-12T16:36:29.525Z,46.33
2019-03-12T16:38:58.834Z,267.80
2019-03-12T16:41:28.152Z,47.53
2019-03-12T16:43:57.479Z,32.43
2019-03-12T16:46:26.870Z,49.27
2019-03-12T16:48:56.135Z,38.90
2019-03-12T16:51:25.500Z,129.23
2019-03-12T16:53:54.843Z,47.70
2019-03-12T16:56:24.172Z,51.53
2019-03-12T16:58:53.431Z,71.03
2019-03-12T17:01:22.834Z,66.63
2019-03-12T17:03:52.166Z,83.77
2019-03-12T17:06:21.495Z,88.47
2019-03-12T17:08:52.319Z,113.73
2019-03-12T17:11:21.671Z,221.23
2019-03-12T17:13:50.951Z,346.40
2019-03-12T17:16:20.276Z,99.13
2019-03-12T17:18:49.636Z,97.13
2019-03-12T17:21:19.418Z,89.03
2019-03-12T17:23:48.795Z,81.50
2019-03-12T17:26:18.127Z,113.10
2019-03-12T17:28:47.439Z,60.33
2019-03-12T17:31:16.808Z,97.50
2019-03-12T17:33:46.127Z,57.40
2019-03-12T17:36:15.453Z,67.63
2019-03-12T17:38:46.880Z,83.87
2019-03-12T17:41:15.824Z,111.73
2019-03-12T17:43:45.184Z,71.60
2019-03-12T17:46:15.069Z,67.67
2019-03-12T17:48:44.445Z,52.00
2019-03-12T17:51:13.811Z,32.03
2019-03-12T17:53:43.177Z,310.20
2019-03-12T17:56:12.533Z,633.53
2019-03-12T17:58:41.881Z,325.30
2019-03-12T18:01:11.289Z,115.83
2019-03-12T18:03:40.742Z,62.00
2019-03-12T18:06:10.167Z,41.57
2019-03-12T18:08:39.465Z,33.00
2019-03-12T18:11:08.848Z,42.40
2019-03-12T18:13:38.262Z,74.53
2019-03-12T18:16:07.821Z,89.23
2019-03-12T18:18:37.299Z,68.73
2019-03-12T18:21:06.659Z,79.90
2019-03-12T18:23:36.085Z,64.70
2019-03-12T18:26:07.352Z,41.30
2019-03-12T18:28:36.684Z,43.17
2019-03-12T18:31:06.080Z,42.37
2019-03-12T18:33:35.446Z,45.03
2019-03-12T18:36:04.799Z,45.77
2019-03-12T18:38:34.207Z,46.80
2019-03-12T18:41:03.606Z,58.87
2019-03-12T18:43:34.897Z,57.17
2019-03-12T18:46:04.196Z,53.87
2019-03-12T18:48:33.467Z,37.90
2019-03-12T18:51:02.813Z,143.27
2019-03-12T18:53:32.143Z,62.00
2019-03-12T18:56:06.333Z,57.40
2019-03-12T18:58:35.701Z,128.20
2019-03-12T19:01:09.845Z,214.83
2019-03-12T19:03:39.035Z,105.90
2019-03-12T19:06:10.580Z,57.60
2019-03-12T19:08:40.327Z,44.00
2019-03-12T19:11:11.045Z,41.40
2019-03-12T19:13:41.591Z,29.57
2019-03-12T19:16:10.860Z,53.50
2019-03-12T19:18:40.194Z,67.70
2019-03-12T19:21:09.403Z,73.17
2019-03-12T19:23:38.642Z,50.53
2019-03-12T19:26:09.371Z,46.80
2019-03-12T19:28:39.488Z,37.23
2019-03-12T19:31:22.833Z,36.90
2019-03-12T19:33:53.234Z,73.57
2019-03-12T19:36:22.591Z,55.07
2019-03-12T19:38:52.489Z,52.83
2019-03-12T19:41:21.764Z,44.37
2019-03-12T19:43:51.088Z,39.20
2019-03-12T19:46:20.427Z,34.93
2019-03-12T19:48:49.834Z,27.70
2019-03-12T19:51:19.199Z,23.77
2019-03-12T19:53:48.451Z,25.97
2019-03-12T19:56:17.706Z,24.73
2019-03-12T19:58:47.076Z,25.40
2019-03-12T20:01:18.023Z,24.57
2019-03-12T20:03:47.372Z,25.67
2019-03-12T20:06:17.131Z,26.83
2019-03-12T20:08:46.443Z,25.57
2019-03-12T20:11:55.227Z,30.80
2019-03-12T20:15:01.423Z,24.83
2019-03-12T20:18:07.872Z,26.10
2019-03-12T20:21:30.208Z,24.77
2019-03-12T20:24:46.992Z,25.13
2019-03-12T20:28:12.448Z,25.43
2019-03-12T20:31:27.952Z,21.43
2019-03-12T20:34:37.000Z,24.73
2019-03-12T20:37:48.530Z,24.90
2019-03-12T20:40:48.749Z,25.57
2019-03-12T20:43:47.132Z,24.53
2019-03-12T20:46:53.836Z,25.43
2019-03-12T20:50:03.883Z,23.50
2019-03-12T20:53:21.957Z,26.37
2019-03-12T20:56:38.821Z,23.10
2019-03-12T20:59:44.043Z,25.03
2019-03-12T21:02:56.789Z,24.10
2019-03-12T21:06:01.423Z,23.37
2019-03-12T21:09:06.899Z,24.53
2019-03-12T21:12:16.169Z,24.07
2019-03-12T21:15:27.822Z,26.40
2019-03-12T21:18:42.806Z,26.30
2019-03-12T21:22:11.428Z,26.53
2019-03-12T21:25:04.791Z,28.30
2019-03-12T21:27:55.215Z,30.00
2019-03-12T21:30:28.442Z,31.07
2019-03-12T21:32:58.020Z,34.00
2019-03-12T21:35:27.735Z,32.30
2019-03-12T21:37:57.109Z,31.73
2019-03-12T21:40:26.382Z,32.07
2019-03-12T21:42:55.852Z,31.00
2019-03-12T21:45:25.161Z,33.87
2019-03-12T21:47:54.507Z,35.03
2019-03-12T21:50:24.381Z,36.63
2019-03-12T21:52:53.875Z,36.40
2019-03-12T21:55:24.126Z,33.10
2019-03-12T21:57:53.555Z,33.70
2019-03-12T22:00:22.799Z,34.67
2019-03-12T22:02:52.155Z,33.67
2019-03-12T22:05:21.407Z,35.27
2019-03-12T22:07:50.693Z,34.17
2019-03-12T22:10:19.978Z,37.13
2019-03-12T22:12:49.290Z,35.50
2019-03-12T22:15:18.594Z,35.43
2019-03-12T22:17:47.838Z,32.87
2019-03-12T22:20:17.176Z,35.00
2019-03-12T22:22:54.372Z,32.90
2019-03-12T22:25:23.687Z,32.27
2019-03-12T22:27:53.003Z,32.30
2019-03-12T22:30:23.563Z,29.20
2019-03-12T22:32:52.869Z,31.63
2019-03-12T22:35:22.194Z,30.70
2019-03-12T22:37:51.463Z,32.43
2019-03-12T22:40:20.804Z,33.97
2019-03-12T22:42:50.070Z,32.07
2019-03-12T22:45:19.387Z,32.77
2019-03-12T22:47:48.641Z,31.63
2019-03-12T22:50:17.964Z,31.97
2019-03-12T22:52:47.330Z,32.87
2019-03-12T22:55:16.596Z,32.73
2019-03-12T22:57:45.888Z,30.93
2019-03-12T23:00:15.749Z,30.73
2019-03-12T23:02:45.351Z,32.33
2019-03-12T23:05:15.693Z,34.00
2019-03-12T23:07:45.179Z,30.40
2019-03-12T23:10:14.656Z,30.03
2019-03-12T23:12:43.923Z,29.53
2019-03-12T23:15:13.710Z,29.27
2019-03-12T23:17:43.287Z,28.67
2019-03-12T23:20:12.850Z,30.30
2019-03-12T23:22:42.528Z,31.37
2019-03-12T23:25:11.810Z,30.60
2019-03-12T23:27:41.154Z,30.03
2019-03-12T23:30:12.652Z,34.87
2019-03-12T23:32:41.941Z,32.63
2019-03-12T23:35:11.726Z,32.23
2019-03-12T23:37:41.050Z,31.93
2019-03-12T23:40:10.493Z,33.07
2019-03-12T23:42:39.812Z,32.20
2019-03-12T23:45:09.277Z,28.57
2019-03-12T23:47:38.590Z,33.40
2019-03-12T23:50:08.772Z,33.70
2019-03-12T23:52:38.186Z,33.03
2019-03-12T23:55:08.070Z,31.13
2019-03-12T23:57:37.322Z,28.87
